Map

Track Data

SID SEASON NUMBER BASIN SUBBASIN NAME ISO_TIME NATURE LAT LON WMO_WIND WMO_PRES WMO_AGENCY TRACK_TYPE DIST2LAND LANDFALL IFLAG USA_AGENCY USA_ATCF_ID USA_LAT USA_LON USA_RECORD USA_STATUS USA_WIND USA_PRES USA_SSHS USA_R34_NE USA_R34_SE USA_R34_SW USA_R34_NW USA_R50_NE USA_R50_SE USA_R50_SW USA_R50_NW USA_R64_NE USA_R64_SE USA_R64_SW USA_R64_NW USA_POCI USA_ROCI USA_RMW USA_EYE TOKYO_LAT TOKYO_LON TOKYO_GRADE TOKYO_WIND TOKYO_PRES TOKYO_R50_DIR TOKYO_R50_LONG TOKYO_R50_SHORT TOKYO_R30_DIR TOKYO_R30_LONG TOKYO_R30_SHORT TOKYO_LAND CMA_LAT CMA_LON CMA_CAT CMA_WIND CMA_PRES HKO_LAT HKO_LON HKO_CAT HKO_WIND HKO_PRES NEWDELHI_LAT NEWDELHI_LON NEWDELHI_GRADE NEWDELHI_WIND NEWDELHI_PRES NEWDELHI_CI NEWDELHI_DP NEWDELHI_POCI REUNION_LAT REUNION_LON REUNION_TYPE REUNION_WIND REUNION_PRES REUNION_TNUM REUNION_CI REUNION_RMW REUNION_R34_NE REUNION_R34_SE REUNION_R34_SW REUNION_R34_NW REUNION_R50_NE REUNION_R50_SE REUNION_R50_SW REUNION_R50_NW REUNION_R64_NE REUNION_R64_SE REUNION_R64_SW REUNION_R64_NW BOM_LAT BOM_LON BOM_TYPE BOM_WIND BOM_PRES BOM_TNUM BOM_CI BOM_RMW BOM_R34_NE BOM_R34_SE BOM_R34_SW BOM_R34_NW BOM_R50_NE BOM_R50_SE BOM_R50_SW BOM_R50_NW BOM_R64_NE BOM_R64_SE BOM_R64_SW BOM_R64_NW BOM_ROCI BOM_POCI BOM_EYE BOM_POS_METHOD BOM_PRES_METHOD NADI_LAT NADI_LON NADI_CAT NADI_WIND NADI_PRES WELLINGTON_LAT WELLINGTON_LON WELLINGTON_WIND WELLINGTON_PRES DS824_LAT DS824_LON DS824_STAGE DS824_WIND DS824_PRES TD9636_LAT TD9636_LON TD9636_STAGE TD9636_WIND TD9636_PRES TD9635_LAT TD9635_LON TD9635_WIND TD9635_PRES TD9635_ROCI NEUMANN_LAT NEUMANN_LON NEUMANN_CLASS NEUMANN_WIND NEUMANN_PRES MLC_LAT MLC_LON MLC_CLASS MLC_WIND MLC_PRES USA_GUST BOM_GUST BOM_GUST_PER REUNION_GUST REUNION_GUST_PER USA_SEAHGT USA_SEARAD_NE USA_SEARAD_SE USA_SEARAD_SW USA_SEARAD_NW STORM_SPEED STORM_DIR
1907177N18116 1907 30 WP MM NOT_NAMED 1907-06-25 16:00:00 NR 17.7000 116.000 main 433 422 __________O___ -1 17.7000 116.000 2 7 42
1907177N18116 1907 30 WP MM NOT_NAMED 1907-06-25 18:00:00 NR 17.8680 116.159 main 422 413 __________P___ -1 17.8680 116.159 2 7 42
1907177N18116 1907 30 WP MM NOT_NAMED 1907-06-25 21:00:00 NR 18.1193 116.395 main 413 399 __________P___ -1 18.1193 116.395 2 7 41
1907177N18116 1907 30 WP MM NOT_NAMED 1907-06-26 00:00:00 NR 18.3694 116.622 main 401 383 __________P___ -1 18.3694 116.622 2 7 40
1907177N18116 1907 30 WP MM NOT_NAMED 1907-06-26 03:00:00 NR 18.6177 116.834 main 386 376 __________P___ -1 18.6177 116.834 2 6 38
1907177N18116 1907 30 WP MM NOT_NAMED 1907-06-26 04:00:00 NR 18.7000 116.900 main 379 373 __________O___ -1 18.7000 116.900 2 6 37
1907177N18116 1907 30 WP MM NOT_NAMED 1907-06-26 06:00:00 NR 18.8639 117.026 main 377 362 __________P___ -1 18.8639 117.026 2 6 35
1907177N18116 1907 30 WP MM NOT_NAMED 1907-06-26 09:00:00 NR 19.1098 117.201 main 365 351 __________P___ -1 19.1098 117.201 2 6 33
1907177N18116 1907 30 WP MM NOT_NAMED 1907-06-26 12:00:00 NR 19.3586 117.370 main 354 348 __________P___ -1 19.3586 117.370 2 6 33
1907177N18116 1907 30 WP MM NOT_NAMED 1907-06-26 15:00:00 NR 19.6133 117.541 main 352 342 __________P___ -1 19.6133 117.541 2 6 32
1907177N18116 1907 30 WP MM NOT_NAMED 1907-06-26 16:00:00 NR 19.7000 117.600 main 347 342 __________O___ -1 19.7000 117.600 2 5 42
1907177N18116 1907 30 WP MM NOT_NAMED 1907-06-26 18:00:00 NR 19.8095 117.723 main 342 329 __________P___ -1 19.8095 117.723 2 5 47
1907177N18116 1907 30 WP MM NOT_NAMED 1907-06-26 21:00:00 NR 19.9784 117.914 main 335 324 __________P___ -1 19.9784 117.914 2 6 42
1907177N18116 1907 30 WP MM NOT_NAMED 1907-06-27 00:00:00 NR 20.2226 118.114 main 330 288 __________P___ -1 20.2226 118.114 2 8 31
1907177N18116 1907 30 WP MM NOT_NAMED 1907-06-27 03:00:00 NR 20.6200 118.326 main 288 268 __________P___ -1 20.6200 118.326 2 10 25
1907177N18116 1907 30 WP MM NOT_NAMED 1907-06-27 04:00:00 NR 20.8000 118.400 main 268 229 __________O___ -1 20.8000 118.400 2 14 16
1907177N18116 1907 30 WP MM NOT_NAMED 1907-06-27 06:00:00 NR 21.2784 118.525 main 229 167 __________P___ -1 21.2784 118.525 2 17 12
1907177N18116 1907 30 WP MM NOT_NAMED 1907-06-27 09:00:00 NR 22.1603 118.724 main 167 112 __________P___ -1 22.1603 118.724 2 19 12
1907177N18116 1907 30 WP MM NOT_NAMED 1907-06-27 12:00:00 NR 23.1563 118.964 main 112 75 __________P___ -1 23.1563 118.964 2 21 14
1907177N18116 1907 30 WP MM NOT_NAMED 1907-06-27 15:00:00 NR 24.1728 119.275 main 75 69 __________P___ -1 24.1728 119.275 2 21 16
1907177N18116 1907 30 WP MM NOT_NAMED 1907-06-27 16:00:00 NR 24.5000 119.400 main 67 24 __________O___ -1 24.5000 119.400 2 20 22
1907177N18116 1907 30 WP MM NOT_NAMED 1907-06-27 18:00:00 NR 25.1221 119.686 main 24 10 __________P___ -1 25.1221 119.686 2 20 26
1907177N18116 1907 30 WP MM NOT_NAMED 1907-06-27 21:00:00 NR 25.9848 120.192 main 49 41 __________P___ -1 25.9848 120.192 2 19 30
1907177N18116 1907 30 WP MM NOT_NAMED 1907-06-28 00:00:00 NR 26.7854 120.768 main 51 44 __________P___ -1 26.7854 120.768 2 19 34
1907177N18116 1907 30 WP MM NOT_NAMED 1907-06-28 03:00:00 NR 27.5492 121.388 main 66 44 __________P___ -1 27.5492 121.388 2 19 36
1907177N18116 1907 30 WP MM NOT_NAMED 1907-06-28 04:00:00 NR 27.8000 121.600 main 44 __________O___ -1 27.8000 121.600 2 19 36

Digital Typhoon Data and Search

About IBTrACS Database

This database is a web-friendly format of International Best Track Archive for Climate Stewardship (IBTrACS), a global best track data archive curated by NOAA dating back to 1842.

Updated: 2021-12-01